This is the latest recevied weather packets stored in our database for station/object LROP. If no packets are shown the sender has not sent any weather packets the latest 1 day(s).
| Time | Temp. | Humidity | Pressure | Rain* | Wind** | Luminosity | Snow |
|---|---|---|---|---|---|---|---|
| 1778087882 | 22.22° C | 41% | 1014 hPa | - | - | - | - |
| 1778086982 | 22.22° C | 41% | 1014 hPa | - | - | - | - |
| 1778080682 | 25° C | 34% | 1014 hPa | - | - | - | - |
| 1778078882 | 25° C | 34% | 1014 hPa | - | - | - | - |
| 1778077994 | 25° C | 34% | 1014 hPa | - | - | - | - |
| 1778077082 | 25° C | 36% | 1014 hPa | - | - | - | - |
| 1778076255 | 25° C | 36% | 1014 hPa | - | - | - | - |
| 1778072591 | 25° C | 39% | 1014 hPa | - | - | - | - |
| 1778068082 | 25° C | 36% | 1015 hPa | - | - | - | - |
| 1778066282 | 23.89° C | 36% | 1015 hPa | - | - | - | - |
| 1778065382 | 23.89° C | 36% | 1015 hPa | - | - | - | - |
| 1778060882 | 23.89° C | 34% | 1015 hPa | - | - | - | - |
| 1778059982 | 23.89° C | 34% | 1015 hPa | - | - | - | - |
| 1778059082 | 22.78° C | 38% | 1015 hPa | - | - | - | - |
| 1778056382 | 22.22° C | 38% | 1015 hPa | - | - | - | - |
| 1778051882 | 17.22° C | 59% | 1015 hPa | - | - | - | - |
| 1778050982 | 17.22° C | 59% | 1015 hPa | - | - | - | - |
| 1778049182 | 15° C | 63% | 1015 hPa | - | - | - | - |
| 1778046483 | 12.78° C | 67% | 1015 hPa | - | - | - | - |
| 1778045590 | 12.78° C | 67% | 1015 hPa | - | - | - | - |
| 1778043796 | 11.11° C | 77% | 1015 hPa | - | - | - | - |
| 1778041986 | 10° C | 82% | 1015 hPa | - | - | - | - |
| 1778038382 | 8.89° C | 87% | 1015 hPa | - | - | - | - |
| 1778037482 | 8.89° C | 87% | 1015 hPa | - | - | - | - |
| 1778034782 | 8.89° C | 87% | 1014 hPa | - | - | - | - |
* Rain since midnight (hover to see other rain measurements)
** Current wind speed in m/s (hover to see current wind gust speed)